createdAt,value
2018-09-24T00:04:41.424Z,79.13
2018-09-24T00:09:34.080Z,78.89
2018-09-24T00:14:26.980Z,79.45
2018-09-24T00:19:19.705Z,79.26
2018-09-24T00:24:12.332Z,78.88
2018-09-24T00:29:05.057Z,79.38
2018-09-24T00:33:57.721Z,79.12
2018-09-24T00:38:50.357Z,79.10
2018-09-24T00:43:42.991Z,79.08
2018-09-24T00:48:35.814Z,79.30
2018-09-24T00:53:28.535Z,78.84
2018-09-24T00:58:21.148Z,79.36
2018-09-24T01:03:13.744Z,78.87
2018-09-24T01:08:06.416Z,78.74
2018-09-24T01:12:58.984Z,79.06
2018-09-24T01:17:51.736Z,78.69
2018-09-24T01:22:44.345Z,79.08
2018-09-24T01:27:37.033Z,78.71
2018-09-24T01:32:29.848Z,78.88
2018-09-24T01:37:22.429Z,78.53
2018-09-24T01:42:15.054Z,79.03
2018-09-24T01:47:07.756Z,78.79
2018-09-24T01:52:00.392Z,79.61
2018-09-24T01:56:53.005Z,78.92
2018-09-24T02:01:45.596Z,78.69
2018-09-24T02:06:38.201Z,79.25
2018-09-24T02:11:30.791Z,79.06
2018-09-24T02:16:23.377Z,78.92
2018-09-24T02:21:16.171Z,79.10
2018-09-24T02:26:09.759Z,79.30
2018-09-24T02:31:02.460Z,79.22
2018-09-24T02:35:55.141Z,79.34
2018-09-24T02:40:47.783Z,79.73
2018-09-24T02:45:40.376Z,79.21
2018-09-24T02:50:36.864Z,79.33
2018-09-24T02:55:29.464Z,79.43
2018-09-24T03:00:22.337Z,79.54
2018-09-24T03:05:14.949Z,79.39
2018-09-24T03:10:07.541Z,79.17
2018-09-24T03:15:00.137Z,79.42
2018-09-24T03:19:52.752Z,79.76
2018-09-24T03:24:45.351Z,79.86
2018-09-24T03:29:38.323Z,79.74
2018-09-24T03:34:30.880Z,79.80
2018-09-24T03:39:23.567Z,79.35
2018-09-24T03:44:16.191Z,79.09
2018-09-24T03:49:09.316Z,79.04
2018-09-24T03:54:01.875Z,79.59
2018-09-24T03:58:54.467Z,79.98
2018-09-24T04:03:47.072Z,79.50
2018-09-24T04:08:45.580Z,79.53
2018-09-24T04:13:44.136Z,79.39
2018-09-24T04:18:42.513Z,79.56
2018-09-24T04:23:40.815Z,79.17
2018-09-24T04:28:39.353Z,78.82
2018-09-24T04:33:37.853Z,79.37
2018-09-24T04:38:36.363Z,79.06
2018-09-24T04:43:34.735Z,79.18
2018-09-24T04:48:33.328Z,79.21
2018-09-24T04:53:31.872Z,79.22
2018-09-24T04:58:30.200Z,79.61
2018-09-24T05:03:28.631Z,79.03
2018-09-24T05:08:28.241Z,79.25
2018-09-24T05:13:27.061Z,79.12
2018-09-24T05:18:25.576Z,78.83
2018-09-24T05:23:24.215Z,78.59
2018-09-24T05:28:22.744Z,79.05
2018-09-24T05:33:21.517Z,78.94
2018-09-24T05:38:20.037Z,78.94
2018-09-24T05:43:18.414Z,78.63
2018-09-24T05:48:16.796Z,78.95
2018-09-24T05:53:15.362Z,78.40
2018-09-24T05:58:13.701Z,78.50
2018-09-24T06:03:12.256Z,78.36
2018-09-24T06:08:10.837Z,78.49
2018-09-24T06:13:09.173Z,78.70
2018-09-24T06:18:07.661Z,77.82
2018-09-24T06:23:06.161Z,77.78
2018-09-24T06:28:04.624Z,77.83
2018-09-24T06:33:02.944Z,77.12
2018-09-24T06:38:01.468Z,76.62
2018-09-24T06:42:59.952Z,76.54
2018-09-24T06:47:58.452Z,76.36
2018-09-24T06:52:56.712Z,75.75
2018-09-24T06:57:55.319Z,75.60
2018-09-24T07:02:53.679Z,73.68
2018-09-24T07:07:52.106Z,74.10
2018-09-24T07:12:50.571Z,72.96
2018-09-24T07:17:49.118Z,72.15
2018-09-24T07:22:47.588Z,71.69
2018-09-24T07:27:46.156Z,70.98
2018-09-24T07:32:44.588Z,69.69
2018-09-24T07:37:43.091Z,69.27
2018-09-24T07:42:41.492Z,69.38
2018-09-24T07:47:39.861Z,68.27
2018-09-24T07:52:38.400Z,68.50
2018-09-24T07:57:36.812Z,67.13
2018-09-24T08:02:35.244Z,67.36
2018-09-24T08:07:33.914Z,65.24
2018-09-24T08:12:32.300Z,64.80
2018-09-24T08:17:30.817Z,64.05
2018-09-24T08:22:29.185Z,63.67
2018-09-24T08:27:27.707Z,62.03
2018-09-24T08:32:25.996Z,62.31
2018-09-24T08:37:24.609Z,59.42
2018-09-24T08:42:23.112Z,60.17
2018-09-24T08:47:21.596Z,58.98
2018-09-24T08:52:20.152Z,58.95
2018-09-24T08:57:18.621Z,59.18
2018-09-24T09:02:17.044Z,59.51
2018-09-24T09:07:15.424Z,58.75
2018-09-24T09:12:13.939Z,57.93
2018-09-24T09:17:12.254Z,57.87
2018-09-24T09:22:10.847Z,56.92
2018-09-24T09:27:09.256Z,57.14
2018-09-24T09:32:07.624Z,57.51
2018-09-24T09:37:06.035Z,56.80
2018-09-24T09:42:04.392Z,56.29
2018-09-24T09:47:02.776Z,56.42
2018-09-24T09:52:01.308Z,55.11
2018-09-24T09:56:59.708Z,55.12
2018-09-24T10:01:58.111Z,54.36
2018-09-24T10:06:56.608Z,54.50
2018-09-24T10:11:55.083Z,53.77
2018-09-24T10:16:53.390Z,53.90
2018-09-24T10:21:51.910Z,52.27
2018-09-24T10:26:50.270Z,52.69
2018-09-24T10:31:48.552Z,52.17
2018-09-24T10:36:47.040Z,52.43
2018-09-24T10:41:45.457Z,51.66
2018-09-24T10:46:43.970Z,50.21
2018-09-24T10:51:42.451Z,49.89
2018-09-24T10:56:40.856Z,48.45
2018-09-24T11:01:39.203Z,48.24
2018-09-24T11:06:37.637Z,46.08
2018-09-24T11:11:36.100Z,45.87
2018-09-24T11:16:35.056Z,46.03
2018-09-24T11:21:33.421Z,43.94
2018-09-24T11:31:30.653Z,44.13
2018-09-24T11:36:29.189Z,44.77
2018-09-24T11:41:27.731Z,45.87
2018-09-24T11:46:26.618Z,44.89
2018-09-24T11:51:25.173Z,45.20
2018-09-24T11:56:23.501Z,46.41
2018-09-24T12:01:22.039Z,49.43
2018-09-24T12:06:23.282Z,51.28
2018-09-24T12:11:21.900Z,52.65
2018-09-24T12:16:20.472Z,53.15
2018-09-24T12:21:19.026Z,53.37
2018-09-24T12:26:17.568Z,53.59
2018-09-24T12:31:16.012Z,54.78
2018-09-24T12:36:14.330Z,56.08
2018-09-24T12:41:12.812Z,56.85
2018-09-24T12:46:11.437Z,58.15
2018-09-24T12:51:09.937Z,58.89
2018-09-24T12:56:08.328Z,59.53
2018-09-24T13:01:06.812Z,59.67
2018-09-24T13:06:05.318Z,59.53
2018-09-24T13:11:03.887Z,59.48
2018-09-24T13:16:02.280Z,58.52
2018-09-24T13:21:00.804Z,56.65
2018-09-24T13:25:59.144Z,56.30
2018-09-24T13:30:58.736Z,56.39
2018-09-24T13:35:57.067Z,55.85
2018-09-24T13:40:56.809Z,57.09
2018-09-24T13:45:55.361Z,56.29
2018-09-24T13:50:53.755Z,56.25
2018-09-24T13:55:52.029Z,55.37
2018-09-24T14:00:50.404Z,54.89
2018-09-24T14:05:48.869Z,53.71
2018-09-24T14:10:47.324Z,52.34
2018-09-24T14:15:45.849Z,52.07
2018-09-24T14:20:44.132Z,52.28
2018-09-24T14:25:42.516Z,52.34
2018-09-24T14:30:41.036Z,52.16
2018-09-24T14:35:39.320Z,51.55
2018-09-24T14:40:37.696Z,50.99
2018-09-24T14:45:36.040Z,50.52
2018-09-24T14:50:34.472Z,50.82
2018-09-24T14:55:32.871Z,50.70
2018-09-24T15:00:31.492Z,50.57
2018-09-24T15:05:30.192Z,50.29
2018-09-24T15:10:28.815Z,49.91
2018-09-24T15:15:27.160Z,50.37
2018-09-24T15:20:25.606Z,50.09
2018-09-24T15:25:24.048Z,50.15
2018-09-24T15:30:22.516Z,51.11
2018-09-24T15:35:21.009Z,51.27
2018-09-24T15:40:19.494Z,51.24
2018-09-24T15:45:17.839Z,50.88
2018-09-24T15:50:16.411Z,50.36
2018-09-24T15:55:14.914Z,50.23
2018-09-24T16:00:13.848Z,51.17
2018-09-24T16:05:12.348Z,51.31
2018-09-24T16:10:11.416Z,51.65
2018-09-24T16:15:10.937Z,51.54
2018-09-24T16:20:09.540Z,51.84
2018-09-24T16:25:08.008Z,51.23
2018-09-24T16:30:06.531Z,51.50
2018-09-24T16:35:05.050Z,51.36
2018-09-24T16:40:03.436Z,51.38
2018-09-24T16:45:01.891Z,51.48
2018-09-24T16:50:00.410Z,51.24
2018-09-24T16:54:58.727Z,50.96
2018-09-24T16:59:57.295Z,50.44
2018-09-24T17:04:55.902Z,50.09
2018-09-24T17:09:54.359Z,49.47
2018-09-24T17:14:52.882Z,48.75
2018-09-24T17:19:51.420Z,48.99
2018-09-24T17:24:49.941Z,49.66
2018-09-24T17:29:48.799Z,49.25
2018-09-24T17:34:47.514Z,49.72
2018-09-24T17:39:46.211Z,50.21
2018-09-24T17:44:45.012Z,50.66
2018-09-24T17:49:44.018Z,51.00
2018-09-24T17:54:42.701Z,51.52
2018-09-24T17:59:41.421Z,50.58
2018-09-24T18:04:40.084Z,51.53
2018-09-24T18:09:38.891Z,52.01
2018-09-24T18:14:37.753Z,51.85
2018-09-24T18:19:36.469Z,52.05
2018-09-24T18:24:35.105Z,52.17
2018-09-24T18:29:33.632Z,52.37
2018-09-24T18:34:32.437Z,52.48
2018-09-24T18:39:31.116Z,52.74
2018-09-24T18:44:29.564Z,52.65
2018-09-24T18:49:27.957Z,52.28
2018-09-24T18:54:26.436Z,52.42
2018-09-24T18:59:24.850Z,52.84
2018-09-24T19:04:23.292Z,53.26
2018-09-24T19:09:21.778Z,53.56
2018-09-24T19:14:20.232Z,53.32
2018-09-24T19:19:18.673Z,53.69
2018-09-24T19:24:16.992Z,53.13
2018-09-24T19:29:15.425Z,52.56
2018-09-24T19:34:13.869Z,51.78
2018-09-24T19:39:13.848Z,51.50
2018-09-24T19:44:12.272Z,51.42
2018-09-24T19:49:10.676Z,51.63
2018-09-24T19:54:09.134Z,51.03
2018-09-24T19:59:07.537Z,50.64
2018-09-24T20:04:05.976Z,51.27
2018-09-24T20:09:04.599Z,51.18
2018-09-24T20:14:02.931Z,51.21
2018-09-24T20:19:01.491Z,51.65
2018-09-24T20:23:59.916Z,51.56
2018-09-24T20:28:58.263Z,51.66
2018-09-24T20:33:56.875Z,51.87
2018-09-24T20:38:55.304Z,51.94
2018-09-24T20:43:53.875Z,52.08
2018-09-24T20:48:52.488Z,52.18
2018-09-24T20:53:50.900Z,52.93
2018-09-24T20:58:49.339Z,52.89
2018-09-24T21:03:47.983Z,53.04
2018-09-24T21:08:46.516Z,53.18
2018-09-24T21:13:45.284Z,53.70
2018-09-24T21:18:43.887Z,53.79
2018-09-24T21:23:42.472Z,54.34
2018-09-24T21:28:41.142Z,54.51
2018-09-24T21:33:40.525Z,54.52
2018-09-24T21:38:39.567Z,55.15
2018-09-24T21:43:39.265Z,54.86
2018-09-24T21:48:38.124Z,55.31
2018-09-24T21:53:36.512Z,55.80
2018-09-24T21:58:35.148Z,56.25
2018-09-24T22:03:33.627Z,55.99
2018-09-24T22:08:32.117Z,56.87
2018-09-24T22:13:30.548Z,56.72
2018-09-24T22:18:28.988Z,57.08
2018-09-24T22:23:27.224Z,58.15
2018-09-24T22:28:25.550Z,57.97
2018-09-24T22:33:23.913Z,58.44
2018-09-24T22:38:22.413Z,58.73
2018-09-24T22:43:20.958Z,59.25
2018-09-24T22:48:19.326Z,59.04
2018-09-24T22:53:17.802Z,60.00
2018-09-24T22:58:16.197Z,59.92
2018-09-24T23:03:14.660Z,60.33
2018-09-24T23:08:13.157Z,60.83
2018-09-24T23:13:11.823Z,61.05
2018-09-24T23:18:10.168Z,61.16
2018-09-24T23:23:08.448Z,62.21
2018-09-24T23:28:06.879Z,61.92
2018-09-24T23:33:05.377Z,62.40
2018-09-24T23:38:03.792Z,62.49
2018-09-24T23:43:02.244Z,62.79
2018-09-24T23:48:00.778Z,63.03
2018-09-24T23:52:59.248Z,63.16
2018-09-24T23:57:57.656Z,63.40
